Time;durP1;ratioP1;P1;durP2;ratioP2;P2;SDS_P1;SDS_P2;PMS_P1;PMS_P2;Temp;Humidity;BMP_temperature;BMP_pressure;BME280_temperature;BME280_humidity;BME280_pressure;Samples;Min_cycle;Max_cycle;Signal;HPM_P1;HPM_P2
2022/10/30 00:01:08;;;;;;;5.60;3.53;;;;;;;6.17;77.90;97167.81;5094078;28;20047;-61
2022/10/30 00:03:35;;;;;;;4.68;2.67;;;;;;;6.20;77.67;97162.56;5094160;28;20048;-60
2022/10/30 00:06:05;;;;;;;4.80;3.40;;;;;;;6.22;77.94;97168.59;5094043;28;20079;-60
2022/10/30 00:08:32;;;;;;;4.10;2.58;;;;;;;6.18;78.08;97169.53;5093789;28;20052;-61
2022/10/30 00:11:06;;;;;;;6.60;3.35;;;;;;;6.23;78.25;97164.28;5093796;28;20067;-61
2022/10/30 00:13:35;;;;;;;6.13;3.28;;;;;;;6.25;77.65;97163.38;5093747;28;20514;-61
2022/10/30 00:16:05;;;;;;;6.10;3.33;;;;;;;6.27;77.66;97164.22;5093796;28;20083;-61
2022/10/30 00:18:32;;;;;;;6.65;3.55;;;;;;;6.21;77.83;97156.50;5093845;28;20084;-61
2022/10/30 00:21:05;;;;;;;5.07;3.38;;;;;;;6.11;77.76;97160.06;5093729;28;20044;-61
2022/10/30 00:23:33;;;;;;;3.60;2.72;;;;;;;6.16;77.66;97150.47;5093632;28;20052;-61
2022/10/30 00:26:03;;;;;;;4.22;3.10;;;;;;;6.08;77.94;97150.56;5093629;28;20072;-61
2022/10/30 00:28:31;;;;;;;3.80;3.50;;;;;;;6.08;78.13;97147.94;5093599;28;20048;-61
2022/10/30 00:31:00;;;;;;;3.83;2.83;;;;;;;6.03;78.18;97145.41;5093508;28;20479;-61
2022/10/30 00:33:27;;;;;;;3.92;2.78;;;;;;;6.04;78.37;97141.06;5093671;28;20052;-61
2022/10/30 00:35:54;;;;;;;5.60;2.97;;;;;;;6.05;78.01;97143.66;5093508;28;20486;-61
2022/10/30 00:38:22;;;;;;;4.97;3.42;;;;;;;6.06;77.61;97137.56;5093420;28;20105;-61
2022/10/30 00:40:49;;;;;;;6.03;3.17;;;;;;;6.05;77.70;97133.25;5093399;28;20463;-60
2022/10/30 00:43:31;;;;;;;5.57;3.20;;;;;;;6.05;77.72;97137.63;5093150;28;20051;-61
2022/10/30 00:46:04;;;;;;;5.05;2.90;;;;;;;6.05;77.63;97135.88;5093320;28;20131;-61
2022/10/30 00:48:32;;;;;;;5.70;2.78;;;;;;;6.01;77.48;97131.56;5093211;28;20056;-60
2022/10/30 00:51:01;;;;;;;4.13;2.92;;;;;;;6.05;77.18;97129.81;5093224;28;20604;-60
2022/10/30 00:53:30;;;;;;;4.78;2.85;;;;;;;6.06;76.43;97137.56;5093131;28;20139;-61
2022/10/30 00:56:01;;;;;;;7.03;3.63;;;;;;;6.05;76.27;97132.44;5093239;28;20176;-61
2022/10/30 00:58:33;;;;;;;3.13;2.60;;;;;;;5.96;76.02;97135.91;5093165;28;20447;-60
2022/10/30 01:01:05;;;;;;;4.20;2.97;;;;;;;5.92;76.33;97129.03;5093082;28;20048;-61
2022/10/30 01:03:34;;;;;;;5.53;3.15;;;;;;;5.81;78.00;97124.81;5093064;28;20123;-61
2022/10/30 01:06:04;;;;;;;4.32;2.72;;;;;;;5.80;78.00;97122.22;5093107;28;20477;-61
2022/10/30 01:08:32;;;;;;;5.70;3.20;;;;;;;5.75;78.91;97119.66;5093078;28;20460;-61
2022/10/30 01:11:02;;;;;;;5.05;3.33;;;;;;;5.74;79.28;97122.28;5093036;28;20144;-60
2022/10/30 01:13:30;;;;;;;4.13;2.88;;;;;;;5.64;79.33;97121.53;5093086;28;20451;-60
2022/10/30 01:16:17;;;;;;;5.40;3.20;;;;;;;5.57;79.18;97118.97;5092969;28;20075;-60
2022/10/30 01:18:52;;;;;;;4.78;2.72;;;;;;;5.57;79.39;97105.16;5093028;28;20098;-61
2022/10/30 01:21:33;;;;;;;5.15;2.90;;;;;;;5.54;79.58;97112.97;5092681;28;20048;-60
2022/10/30 01:24:15;;;;;;;9.05;2.80;;;;;;;5.56;79.54;97104.28;5092881;28;20131;-61
2022/10/30 01:26:51;;;;;;;3.95;2.83;;;;;;;5.54;79.39;97097.38;5092936;28;20047;-60
2022/10/30 01:29:34;;;;;;;4.47;2.78;;;;;;;5.52;78.93;97100.00;5092900;28;20044;-61
2022/10/30 01:32:19;;;;;;;4.25;3.22;;;;;;;5.55;79.83;97099.09;5092890;28;20048;-61
2022/10/30 01:34:55;;;;;;;5.53;3.20;;;;;;;5.51;79.79;97093.06;5092797;28;20059;-61
2022/10/30 01:37:30;;;;;;;4.07;2.70;;;;;;;5.53;79.87;97086.13;5092777;28;20131;-61
2022/10/30 01:40:03;;;;;;;3.03;2.45;;;;;;;5.51;79.49;97085.28;5092756;28;20083;-60
2022/10/30 01:42:52;;;;;;;5.65;3.08;;;;;;;5.48;79.55;97074.91;5094610;28;20187;-60
2022/10/30 01:45:27;;;;;;;3.75;2.67;;;;;;;5.46;79.66;97084.47;5096688;28;20448;-61
2022/10/30 01:48:14;;;;;;;5.78;3.00;;;;;;;5.44;80.35;97088.81;5096461;28;20098;-60
2022/10/30 01:50:51;;;;;;;10.40;2.63;;;;;;;5.44;80.45;97086.22;5096555;28;20089;-60
2022/10/30 01:53:30;;;;;;;4.20;2.85;;;;;;;5.49;80.34;97075.78;5096582;28;20126;-60
2022/10/30 01:56:09;;;;;;;7.18;3.00;;;;;;;5.51;79.93;97087.88;5096336;28;20044;-61
2022/10/30 01:58:44;;;;;;;5.32;3.47;;;;;;;5.54;79.71;97087.00;5096434;28;20101;-61
2022/10/30 02:01:12;;;;;;;7.35;3.00;;;;;;;5.47;79.81;97072.34;5096378;28;20118;-61
2022/10/30 02:03:41;;;;;;;4.85;2.63;;;;;;;5.50;79.96;97080.09;5096314;28;20052;-61
2022/10/30 02:06:08;;;;;;;6.50;3.50;;;;;;;5.47;79.87;97074.94;5096205;28;20048;-61
2022/10/30 02:08:35;;;;;;;6.30;3.25;;;;;;;5.48;80.46;97074.09;5096103;28;20044;-61
2022/10/30 02:11:02;;;;;;;5.90;3.95;;;;;;;5.43;80.54;97069.81;5096142;28;20048;-61
2022/10/30 02:13:30;;;;;;;5.78;3.40;;;;;;;5.52;80.79;97075.78;5096109;28;20048;-61
2022/10/30 02:15:58;;;;;;;8.15;3.30;;;;;;;5.60;80.51;97073.09;5096083;28;20134;-61
2022/10/30 02:18:26;;;;;;;5.55;2.80;;;;;;;5.63;80.23;97067.88;5095962;28;20141;-62
2022/10/30 02:20:54;;;;;;;14.57;3.97;;;;;;;5.63;79.95;97068.72;5095936;28;20494;-61
2022/10/30 02:23:22;;;;;;;4.68;3.08;;;;;;;5.65;79.91;97072.19;5095787;28;20126;-61
2022/10/30 02:25:49;;;;;;;4.18;2.65;;;;;;;5.68;79.04;97076.47;5095970;28;20048;-62
2022/10/30 02:28:16;;;;;;;4.55;2.70;;;;;;;5.64;78.83;97065.28;5095750;28;20056;-61
2022/10/30 02:30:44;;;;;;;2.90;2.47;;;;;;;5.60;78.57;97070.50;5095797;28;20132;-61
2022/10/30 02:33:11;;;;;;;5.20;2.67;;;;;;;5.56;78.74;97067.06;5095706;28;20050;-61
2022/10/30 02:35:38;;;;;;;4.82;2.67;;;;;;;5.54;79.46;97067.09;5095694;28;20071;-62
2022/10/30 02:38:06;;;;;;;3.53;2.17;;;;;;;5.53;79.48;97067.97;5095607;28;20048;-61
2022/10/30 02:40:33;;;;;;;8.18;2.92;;;;;;;5.48;80.07;97064.53;5095581;28;20093;-61
2022/10/30 02:43:01;;;;;;;4.57;2.75;;;;;;;5.44;80.38;97061.13;5095418;28;20040;-61
2022/10/30 02:45:28;;;;;;;2.75;2.33;;;;;;;5.47;80.16;97061.97;5095407;28;20143;-61
2022/10/30 02:47:55;;;;;;;3.65;2.67;;;;;;;5.44;79.91;97061.13;5095452;28;20048;-61
2022/10/30 02:50:22;;;;;;;5.28;2.70;;;;;;;5.33;81.09;97064.69;5095672;28;20040;-61
2022/10/30 02:52:49;;;;;;;6.00;3.05;;;;;;;5.26;81.17;97066.47;5095250;28;20050;-62
2022/10/30 02:55:18;;;;;;;2.72;2.22;;;;;;;5.24;81.36;97071.66;5095374;28;20474;-61
2022/10/30 02:57:45;;;;;;;3.72;2.30;;;;;;;5.26;81.12;97066.47;5095306;28;20105;-61
2022/10/30 03:00:13;;;;;;;7.13;2.80;;;;;;;5.27;81.07;97063.03;5095241;28;20051;-61
2022/10/30 03:02:40;;;;;;;3.55;2.60;;;;;;;5.27;80.44;97065.63;5095213;28;20048;-61
2022/10/30 03:05:08;;;;;;;3.60;2.25;;;;;;;5.29;79.78;97066.44;5095128;28;20044;-61
2022/10/30 03:07:35;;;;;;;3.55;2.60;;;;;;;5.27;80.41;97065.63;5095042;28;20044;-62
2022/10/30 03:10:02;;;;;;;5.45;2.95;;;;;;;5.28;80.13;97067.31;5094958;28;20087;-61
2022/10/30 03:12:30;;;;;;;4.88;2.70;;;;;;;5.22;80.10;97070.84;5095021;28;20102;-61
2022/10/30 03:14:57;;;;;;;3.40;2.17;;;;;;;5.19;79.68;97065.66;5095076;28;20044;-61
2022/10/30 03:17:24;;;;;;;4.25;2.60;;;;;;;5.14;79.93;97070.88;5095004;28;20040;-61
2022/10/30 03:19:52;;;;;;;6.63;2.83;;;;;;;5.02;80.41;97064.06;5094722;28;20044;-62
2022/10/30 03:22:19;;;;;;;6.32;2.58;;;;;;;5.00;80.39;97059.78;5094556;28;20043;-61
2022/10/30 03:24:46;;;;;;;3.35;2.20;;;;;;;5.00;80.44;97062.38;5094874;28;20051;-62
2022/10/30 03:27:14;;;;;;;3.92;2.28;;;;;;;4.96;80.92;97063.25;5094743;28;20094;-61
2022/10/30 03:29:42;;;;;;;3.58;2.22;;;;;;;4.92;80.78;97063.28;5094557;28;20052;-61
2022/10/30 03:32:10;;;;;;;3.55;2.63;;;;;;;4.96;80.92;97064.09;5094562;28;20047;-61
2022/10/30 03:34:38;;;;;;;2.90;2.33;;;;;;;4.91;80.77;97065.88;5094585;28;20047;-61
2022/10/30 03:37:05;;;;;;;4.15;2.35;;;;;;;4.93;80.89;97057.22;5094471;28;20101;-61
2022/10/30 03:39:33;;;;;;;3.30;2.53;;;;;;;4.89;81.46;97058.13;5094381;28;20044;-61
2022/10/30 03:42:00;;;;;;;4.20;2.55;;;;;;;4.87;81.76;97061.56;5094442;28;20086;-61
2022/10/30 03:44:27;;;;;;;4.68;2.40;;;;;;;4.87;81.55;97064.16;5094405;28;20448;-61
2022/10/30 03:46:57;;;;;;;3.50;2.80;;;;;;;4.91;80.88;97060.69;5094415;28;20047;-61
2022/10/30 03:49:25;;;;;;;3.63;2.67;;;;;;;4.92;81.44;97063.28;5094119;28;20047;-61
2022/10/30 03:51:52;;;;;;;3.53;2.40;;;;;;;4.90;81.70;97064.13;5094188;28;20659;-61
2022/10/30 03:54:19;;;;;;;5.10;2.90;;;;;;;4.88;81.48;97066.75;5094282;28;20091;-61
2022/10/30 03:56:46;;;;;;;5.55;3.03;;;;;;;4.96;81.17;97068.44;5094082;28;20579;-61
2022/10/30 03:59:13;;;;;;;3.95;2.30;;;;;;;4.96;81.17;97061.50;5094009;28;20486;-61
2022/10/30 04:01:41;;;;;;;5.50;2.70;;;;;;;4.96;81.41;97060.66;5094026;28;20097;-61
2022/10/30 04:04:09;;;;;;;3.47;2.40;;;;;;;4.97;81.79;97063.22;5093880;28;20074;-61
2022/10/30 04:06:36;;;;;;;2.80;2.28;;;;;;;4.92;81.94;97065.88;5093831;28;20535;-61
2022/10/30 04:09:04;;;;;;;4.13;2.45;;;;;;;4.90;81.95;97051.19;5093864;28;20043;-61
2022/10/30 04:11:31;;;;;;;3.72;2.35;;;;;;;4.89;81.71;97059.84;5093910;28;20044;-61
2022/10/30 04:13:58;;;;;;;2.50;2.22;;;;;;;4.85;81.20;97053.78;5094026;28;20043;-61
2022/10/30 04:16:25;;;;;;;4.07;2.55;;;;;;;4.82;81.67;97058.16;5093834;28;20122;-61
2022/10/30 04:18:52;;;;;;;2.50;2.30;;;;;;;4.80;81.59;97050.41;5093710;28;20131;-61
2022/10/30 04:21:20;;;;;;;4.10;2.83;;;;;;;4.75;81.91;97050.41;5093484;28;20040;-62
2022/10/30 04:23:49;;;;;;;4.88;2.63;;;;;;;4.75;81.97;97050.41;5093616;28;20048;-60
2022/10/30 04:26:16;;;;;;;4.72;2.38;;;;;;;4.70;82.51;97046.13;5093592;28;20067;-61
2022/10/30 04:28:43;;;;;;;4.30;2.80;;;;;;;4.63;82.74;97045.31;5093389;28;20044;-61
2022/10/30 04:31:10;;;;;;;4.82;2.30;;;;;;;4.61;82.57;97053.09;5093597;28;20517;-61
2022/10/30 04:33:38;;;;;;;3.88;2.35;;;;;;;4.59;82.95;97056.56;5093509;28;20044;-61
2022/10/30 04:36:05;;;;;;;4.55;2.58;;;;;;;4.61;83.25;97055.69;5093616;28;20097;-61
2022/10/30 04:38:34;;;;;;;3.80;2.25;;;;;;;4.54;83.14;97052.28;5093528;28;20098;-60
2022/10/30 04:41:01;;;;;;;7.15;2.65;;;;;;;4.54;83.75;97059.19;5093372;28;20048;-60
2022/10/30 04:43:28;;;;;;;4.18;2.47;;;;;;;4.52;83.49;97058.34;5093325;28;20048;-61
2022/10/30 04:45:55;;;;;;;4.45;2.45;;;;;;;4.63;83.29;97060.84;5093351;28;20460;-62
2022/10/30 04:48:23;;;;;;;4.40;2.83;;;;;;;4.69;83.17;97058.22;5093353;28;20052;-61
2022/10/30 04:50:52;;;;;;;3.85;2.83;;;;;;;4.77;82.59;97056.47;5093176;28;20090;-60
2022/10/30 04:53:19;;;;;;;4.45;2.20;;;;;;;4.83;82.10;97059.88;5093256;28;20040;-61
2022/10/30 04:55:48;;;;;;;7.18;2.60;;;;;;;4.86;81.96;97065.91;5093271;28;20044;-61
2022/10/30 04:58:15;;;;;;;3.85;2.78;;;;;;;4.81;82.71;97065.06;5093251;28;20067;-61
2022/10/30 05:00:43;;;;;;;6.80;2.97;;;;;;;4.83;82.90;97062.47;5093136;28;20052;-61
2022/10/30 05:03:17;;;;;;;5.15;2.65;;;;;;;4.95;83.06;97058.94;5093231;28;20105;-61
2022/10/30 05:05:45;;;;;;;3.47;2.85;;;;;;;4.93;82.78;97061.53;5093158;28;20055;-61
2022/10/30 05:08:12;;;;;;;4.68;3.13;;;;;;;5.00;82.89;97062.38;5093202;28;20106;-61
2022/10/30 05:10:40;;;;;;;8.75;3.10;;;;;;;5.08;82.58;97062.31;5093145;28;20165;-61
2022/10/30 05:13:10;;;;;;;5.25;2.75;;;;;;;5.17;82.28;97062.22;5093138;28;20059;-61
2022/10/30 05:15:38;;;;;;;4.80;3.22;;;;;;;5.18;82.67;97061.38;5093177;28;20048;-61
2022/10/30 05:18:05;;;;;;;2.70;2.30;;;;;;;5.23;82.78;97072.53;5095991;28;20051;-61
2022/10/30 05:20:33;;;;;;;3.47;2.60;;;;;;;5.27;82.97;97069.03;5097194;28;20044;-61
2022/10/30 05:23:01;;;;;;;5.82;2.83;;;;;;;5.37;82.69;97071.56;5096956;28;20448;-61
2022/10/30 05:25:29;;;;;;;3.72;2.63;;;;;;;5.47;82.39;97074.94;5096995;28;20488;-61
2022/10/30 05:27:59;;;;;;;4.43;3.03;;;;;;;5.74;82.84;97070.34;5097003;28;20452;-60
2022/10/30 05:30:29;;;;;;;;;;;;;;;6.82;80.94;97069.94;5097369;28;20052;-61
2022/10/30 05:33:00;;;;;;;8.75;3.13;;;;;;;8.46;75.59;97070.56;5096859;28;20006;-61
2022/10/30 05:35:27;;;;;;;;;;;;;;;10.03;68.44;97064.25;5097204;28;20040;-61
2022/10/30 05:37:54;;;;;;;3.72;2.03;;;;;;;11.46;63.09;97059.13;5096841;28;19926;-61
2022/10/30 05:40:21;;;;;;;4.90;1.98;;;;;;;12.93;58.36;97062.69;5096844;28;20048;-60
2022/10/30 05:42:49;;;;;;;2.08;1.67;;;;;;;14.23;52.66;97073.16;5096675;28;20048;-61
2022/10/30 05:45:17;;;;;;;2.25;1.60;;;;;;;15.29;49.71;97063.03;5096685;28;20048;-61
2022/10/30 05:47:55;;;;;;;3.15;1.55;;;;;;;16.50;47.31;97061.34;5096704;28;20072;-61
2022/10/30 05:50:23;;;;;;;1.55;1.45;;;;;;;17.57;44.59;97063.50;5096524;28;20052;-61
2022/10/30 05:52:50;;;;;;;2.10;1.50;;;;;;;18.60;42.60;97063.53;5096518;28;20044;-61
2022/10/30 05:55:18;;;;;;;4.68;1.65;;;;;;;19.50;40.80;97058.81;5096537;28;20052;-61
2022/10/30 05:57:45;;;;;;;2.13;1.58;;;;;;;20.38;38.28;97067.94;5096429;28;20040;-61
2022/10/30 06:00:14;;;;;;;2.47;1.70;;;;;;;21.05;37.45;97060.63;5096596;28;20044;-60
2022/10/30 06:02:42;;;;;;;2.10;1.50;;;;;;;21.82;35.81;97066.56;5096469;28;20406;-61
2022/10/30 06:05:11;;;;;;;2.42;1.15;;;;;;;22.62;34.74;97065.88;5096331;28;20075;-61
2022/10/30 06:07:38;;;;;;;3.40;1.63;;;;;;;23.37;33.14;97067.09;5096259;28;20055;-60
2022/10/30 06:10:06;;;;;;;1.77;1.58;;;;;;;23.78;32.32;97059.28;5096138;28;20571;-60
2022/10/30 06:12:33;;;;;;;1.67;1.40;;;;;;;24.29;32.12;97059.50;5096167;28;20051;-60
2022/10/30 06:15:00;;;;;;;1.92;1.52;;;;;;;24.95;31.24;97055.56;5096033;28;20481;-60
2022/10/30 06:17:31;;;;;;;3.15;1.50;;;;;;;25.60;30.04;97059.63;5095932;28;20079;-60
2022/10/30 06:19:58;;;;;;;1.55;1.30;;;;;;;26.20;29.46;97059.56;5096040;28;20052;-60
2022/10/30 06:22:27;;;;;;;2.28;1.30;;;;;;;26.74;28.82;97065.19;5095101;28;20048;-60
2022/10/30 06:24:54;;;;;;;1.60;1.50;;;;;;;27.29;28.31;97057.28;5094842;28;20161;-60
2022/10/30 06:27:21;;;;;;;1.75;1.40;;;;;;;27.90;27.43;97056.66;5094418;28;20040;-60
2022/10/30 06:29:49;;;;;;;2.03;1.38;;;;;;;28.46;26.87;97056.41;5094621;28;20051;-60
2022/10/30 06:32:16;;;;;;;1.63;1.23;;;;;;;28.93;26.40;97053.44;5094796;28;20044;-60
2022/10/30 06:34:44;;;;;;;3.17;1.88;;;;;;;29.33;25.93;97053.72;5094755;28;20067;-61
2022/10/30 06:37:11;;;;;;;1.35;1.13;;;;;;;29.66;25.29;97045.72;5094489;28;20164;-61
2022/10/30 06:39:40;;;;;;;1.42;1.33;;;;;;;30.04;24.38;97047.06;5094585;28;20082;-61
2022/10/30 06:42:08;;;;;;;2.95;1.45;;;;;;;30.41;24.60;97050.22;5094485;28;20105;-60
2022/10/30 06:44:35;;;;;;;2.00;1.25;;;;;;;30.52;24.83;97050.69;5094381;28;20051;-60
2022/10/30 06:47:03;;;;;;;2.47;1.67;;;;;;;30.79;24.60;97049.63;5094432;28;20073;-60
2022/10/30 06:49:32;;;;;;;2.03;1.75;;;;;;;31.05;23.96;97051.19;5094260;28;20436;-58
2022/10/30 06:52:00;;;;;;;2.38;1.77;;;;;;;31.55;23.72;97037.41;5094277;28;20056;-60
2022/10/30 06:54:27;;;;;;;3.28;1.50;;;;;;;31.99;22.25;97041.31;5094464;28;20040;-61
2022/10/30 06:56:56;;;;;;;1.83;1.38;;;;;;;32.20;22.18;97037.06;5094343;28;20040;-60
2022/10/30 06:59:23;;;;;;;1.40;1.30;;;;;;;32.48;21.86;97036.41;5094132;28;20122;-61
2022/10/30 07:01:50;;;;;;;1.77;1.55;;;;;;;32.74;22.24;97041.38;5094231;28;20094;-61
2022/10/30 07:04:18;;;;;;;3.33;1.60;;;;;;;33.18;21.32;97044.22;5094263;28;20048;-58
2022/10/30 07:06:45;;;;;;;2.00;1.80;;;;;;;33.30;20.97;97047.28;5094113;28;20051;-59
2022/10/30 07:09:12;;;;;;;2.90;1.77;;;;;;;33.62;20.66;97036.97;5093943;28;20044;-60
2022/10/30 07:11:44;;;;;;;2.85;1.85;;;;;;;33.78;20.69;97040.47;5093990;28;20502;-60
2022/10/30 07:14:13;;;;;;;1.65;1.35;;;;;;;34.12;19.94;97043.44;5093925;28;20130;-61
2022/10/30 07:16:42;;;;;;;2.30;1.92;;;;;;;34.27;19.69;97043.38;5093978;28;20113;-61
2022/10/30 07:19:14;;;;;;;2.72;1.40;;;;;;;34.49;19.29;97038.72;5094039;28;20040;-61
2022/10/30 07:21:41;;;;;;;2.95;1.77;;;;;;;34.63;18.50;97033.34;5047116;28;1326808;-61
2022/10/30 07:24:09;;;;;;;2.30;1.70;;;;;;;34.72;18.00;97028.63;5094801;28;20130;-61
2022/10/30 07:26:38;;;;;;;2.50;1.70;;;;;;;34.98;17.71;97032.50;5094691;28;20504;-61
2022/10/30 07:29:06;;;;;;;1.90;1.70;;;;;;;35.10;17.84;97040.91;5094686;28;20599;-61
2022/10/30 07:31:36;;;;;;;1.83;1.52;;;;;;;35.09;18.83;97037.34;5094604;28;20554;-61
2022/10/30 07:34:03;;;;;;;1.88;1.67;;;;;;;35.07;17.93;97034.00;5094631;28;20044;-59
2022/10/30 07:36:32;;;;;;;2.58;1.60;;;;;;;35.26;17.40;97026.13;5094539;28;20123;-61
2022/10/30 07:39:00;;;;;;;3.30;1.90;;;;;;;35.27;16.01;97027.78;5094097;28;20051;-61
2022/10/30 07:41:27;;;;;;;2.67;1.63;;;;;;;35.35;16.53;97027.63;5094011;28;20051;-61
2022/10/30 07:43:55;;;;;;;4.47;1.67;;;;;;;35.60;17.40;97029.75;5094443;28;20044;-61
2022/10/30 07:46:22;;;;;;;1.73;1.60;;;;;;;35.66;16.60;97025.34;5094444;28;20048;-61
2022/10/30 07:48:51;;;;;;;1.92;1.27;;;;;;;35.06;17.17;97018.72;5094330;28;20501;-60
2022/10/30 07:51:18;;;;;;;1.95;1.52;;;;;;;34.63;17.41;97015.19;5094206;28;20044;-60
2022/10/30 07:53:45;;;;;;;1.42;1.33;;;;;;;34.34;17.14;97008.97;5094196;28;20048;-60
2022/10/30 07:56:13;;;;;;;2.50;1.48;;;;;;;33.90;17.52;97017.22;5094078;28;20071;-60
2022/10/30 07:58:40;;;;;;;1.98;1.48;;;;;;;33.35;17.68;97006.88;5094130;28;20044;-60
2022/10/30 08:01:08;;;;;;;1.58;1.20;;;;;;;32.45;18.84;97005.16;5094065;28;20417;-60
2022/10/30 08:03:35;;;;;;;1.52;1.42;;;;;;;31.42;19.41;97005.59;5094087;28;20044;-60
2022/10/30 08:06:05;;;;;;;2.22;1.35;;;;;;;30.40;20.49;97000.84;5093929;28;20083;-60
2022/10/30 08:08:32;;;;;;;2.78;1.40;;;;;;;29.35;21.04;96995.16;5093970;28;20044;-60
2022/10/30 08:10:59;;;;;;;2.85;1.40;;;;;;;28.42;22.48;96995.03;5093825;28;20052;-60
2022/10/30 08:13:27;;;;;;;2.47;1.40;;;;;;;27.60;24.01;96989.75;5093825;28;20050;-60
2022/10/30 08:15:54;;;;;;;2.22;1.60;;;;;;;26.98;24.45;96991.38;5093793;28;20125;-60
2022/10/30 08:18:21;;;;;;;1.70;1.25;;;;;;;26.53;25.63;96986.78;5093776;28;20044;-60
2022/10/30 08:20:50;;;;;;;2.45;1.80;;;;;;;25.94;27.53;96985.13;5093565;28;20405;-60
2022/10/30 08:23:20;;;;;;;5.35;1.95;;;;;;;25.52;26.94;96989.81;5093509;28;20565;-60
2022/10/30 08:25:48;;;;;;;2.47;1.33;;;;;;;25.26;27.11;96989.56;5093707;28;20500;-60
2022/10/30 08:28:15;;;;;;;2.55;1.48;;;;;;;24.90;27.84;96985.59;5093737;28;20058;-60
2022/10/30 08:30:42;;;;;;;1.60;1.40;;;;;;;24.75;26.79;96987.78;5093486;28;20521;-60
2022/10/30 08:33:13;;;;;;;1.80;1.10;;;;;;;24.61;27.29;96989.84;5093597;28;20591;-59
2022/10/30 08:35:48;;;;;;;1.40;1.20;;;;;;;24.57;27.37;96987.59;5093486;28;20055;-59
2022/10/30 08:38:15;;;;;;;1.40;1.30;;;;;;;24.40;27.82;96983.72;5093454;28;20409;-60
2022/10/30 08:40:44;;;;;;;2.10;1.33;;;;;;;24.26;28.27;96977.75;5093459;28;20040;-60
2022/10/30 08:43:13;;;;;;;1.25;1.15;;;;;;;24.34;28.13;96977.94;5093547;28;20083;-60
2022/10/30 08:45:40;;;;;;;1.67;1.25;;;;;;;24.30;27.91;96973.84;5093377;28;20044;-60
2022/10/30 08:48:11;;;;;;;1.77;1.25;;;;;;;24.23;27.68;96976.19;5093293;28;20093;-59
2022/10/30 08:50:38;;;;;;;;;;;;;;;24.14;29.35;96981.50;5093519;28;20054;-59
2022/10/30 08:53:07;;;;;;;1.50;1.15;;;;;;;24.11;27.95;96977.25;5093223;28;20361;-60
2022/10/30 08:55:36;;;;;;;1.65;1.40;;;;;;;24.20;28.29;96970.28;5093357;28;20443;-59
2022/10/30 08:58:06;;;;;;;1.45;1.20;;;;;;;24.30;28.91;96973.00;5093116;28;20040;-60
2022/10/30 09:00:34;;;;;;;2.45;1.27;;;;;;;24.28;28.28;96972.28;5093171;28;20048;-60
2022/10/30 09:03:02;;;;;;;2.20;1.48;;;;;;;24.14;27.73;96963.63;5093227;28;20071;-60
2022/10/30 09:05:29;;;;;;;3.75;1.40;;;;;;;24.11;28.87;96966.56;5093108;28;20482;-59
2022/10/30 09:07:59;;;;;;;1.40;1.25;;;;;;;24.23;29.31;96965.50;5092996;28;20040;-60
2022/10/30 09:10:27;;;;;;;1.83;1.42;;;;;;;24.30;28.43;96962.31;5093044;28;20055;-59
2022/10/30 09:12:55;;;;;;;2.03;1.30;;;;;;;24.42;27.47;96961.25;5093029;28;20102;-60
2022/10/30 09:15:26;;;;;;;1.95;1.50;;;;;;;24.40;28.88;96954.31;5093085;28;20048;-60
2022/10/30 09:17:59;;;;;;;2.97;1.20;;;;;;;24.53;29.34;96951.41;5092898;28;20048;-60
2022/10/30 09:20:27;;;;;;;2.10;1.63;;;;;;;24.52;28.42;96960.41;5092928;28;20048;-60
2022/10/30 09:22:54;;;;;;;1.77;1.55;;;;;;;24.43;28.21;96954.91;5092704;28;20080;-60
2022/10/30 09:25:21;;;;;;;2.60;1.40;;;;;;;24.44;27.94;96951.25;5092974;28;20482;-60
2022/10/30 09:27:49;;;;;;;1.25;1.15;;;;;;;24.50;28.06;96955.19;5092944;28;20040;-60
2022/10/30 09:30:16;;;;;;;3.05;1.30;;;;;;;24.39;28.91;96957.97;5092698;28;20075;-59
2022/10/30 09:32:45;;;;;;;2.35;1.10;;;;;;;24.35;28.71;96949.41;5092813;28;20041;-60
2022/10/30 09:35:12;;;;;;;2.58;1.67;;;;;;;24.38;29.47;96940.25;5092883;28;20386;-59
2022/10/30 09:37:40;;;;;;;6.55;1.85;;;;;;;24.31;27.58;96943.47;5092815;28;20051;-60
2022/10/30 09:40:11;;;;;;;2.03;1.40;;;;;;;24.13;27.80;96932.56;5092760;28;20123;-60
2022/10/30 09:42:44;;;;;;;1.67;1.40;;;;;;;24.24;28.96;96939.66;5092825;28;20106;-59
2022/10/30 09:45:33;;;;;;;2.70;1.88;;;;;;;24.29;28.00;96931.22;5092640;28;20051;-59
2022/10/30 09:48:23;;;;;;;2.40;1.38;;;;;;;24.38;29.05;96930.41;5092734;28;20071;-60
2022/10/30 09:51:02;;;;;;;1.98;1.60;;;;;;;24.28;28.86;96921.50;5092583;28;20052;-59
2022/10/30 09:53:40;;;;;;;3.22;1.55;;;;;;;24.32;28.77;96913.06;5092601;28;20047;-59
2022/10/30 09:56:15;;;;;;;5.90;1.63;;;;;;;24.30;28.88;96911.53;5092711;28;20072;-60
2022/10/30 09:58:59;;;;;;;1.88;1.67;;;;;;;24.20;29.06;96907.00;5092570;28;20559;-59
2022/10/30 10:01:36;;;;;;;3.75;1.65;;;;;;;24.22;29.21;96905.03;5092569;28;20054;-59
2022/10/30 10:04:18;;;;;;;1.88;1.40;;;;;;;24.15;29.49;96895.03;5095116;28;20048;-60
2022/10/30 10:06:50;;;;;;;3.10;1.70;;;;;;;24.17;29.42;96890.41;5096308;28;20130;-59
2022/10/30 10:09:21;;;;;;;2.75;1.65;;;;;;;24.09;29.08;96888.38;5096326;28;20043;-59
2022/10/30 10:11:53;;;;;;;2.53;1.80;;;;;;;24.00;29.45;96887.38;5096176;28;20060;-59
2022/10/30 10:14:24;;;;;;;2.00;1.25;;;;;;;23.96;29.18;96886.78;5096151;28;20044;-60
2022/10/30 10:16:54;;;;;;;2.63;1.75;;;;;;;23.87;29.46;96890.25;5096064;28;20048;-59
2022/10/30 10:19:30;;;;;;;2.22;1.42;;;;;;;23.79;30.31;96882.91;5096216;28;20044;-59
2022/10/30 10:21:59;;;;;;;2.58;1.80;;;;;;;23.89;30.30;96879.41;5095757;28;20062;-60
2022/10/30 10:24:30;;;;;;;3.72;1.90;;;;;;;23.95;30.20;96878.88;5095997;28;20104;-59
2022/10/30 10:27:01;;;;;;;;;;;;;;;23.80;30.41;96891.75;5096330;28;20048;-59
2022/10/30 10:29:40;;;;;;;;;;;;;;;23.50;30.59;96886.28;5096301;28;19920;-59
2022/10/30 10:32:31;;;;;;;3.15;1.80;;;;;;;23.42;31.78;96880.75;5095866;28;19920;-60
2022/10/30 10:35:17;;;;;;;4.47;1.98;;;;;;;23.36;31.51;96876.75;5095795;28;20080;-59
2022/10/30 10:37:52;;;;;;;3.55;2.03;;;;;;;23.37;31.52;96866.94;5095608;28;20052;-59
2022/10/30 10:40:33;;;;;;;3.45;2.90;;;;;;;23.34;31.31;96865.34;5094768;28;20040;-59
2022/10/30 10:43:14;;;;;;;2.95;1.90;;;;;;;23.32;30.97;96867.31;5095451;28;20485;-60
2022/10/30 10:45:48;;;;;;;12.65;1.70;;;;;;;23.13;31.17;96862.69;5095609;28;20075;-60
2022/10/30 10:48:39;;;;;;;4.30;2.00;;;;;;;23.12;31.90;96866.34;5095461;28;20046;-58
2022/10/30 10:51:14;;;;;;;3.22;2.08;;;;;;;23.14;31.66;96861.72;5095354;28;20106;-60
2022/10/30 10:53:46;;;;;;;2.40;1.85;;;;;;;22.94;31.02;96851.75;5095473;28;20563;-59
2022/10/30 10:56:14;;;;;;;3.03;2.05;;;;;;;22.97;31.11;96856.00;5095267;28;20054;-58
2022/10/30 10:58:49;;;;;;;4.88;2.00;;;;;;;23.00;31.44;96852.22;5095316;28;20048;-59
2022/10/30 11:01:22;;;;;;;2.88;2.03;;;;;;;23.00;31.11;96852.22;5095347;28;20048;-61
2022/10/30 11:03:57;;;;;;;6.82;1.80;;;;;;;22.84;31.89;96841.00;5095114;28;20097;-58
2022/10/30 11:06:29;;;;;;;2.20;1.65;;;;;;;22.82;30.97;96847.47;5095179;28;20048;-59
2022/10/30 11:09:12;;;;;;;3.35;1.52;;;;;;;22.87;32.21;96845.22;5095108;28;20048;-58
2022/10/30 11:11:39;;;;;;;3.72;1.90;;;;;;;22.99;31.42;96838.03;5095092;28;20555;-61
2022/10/30 11:14:14;;;;;;;6.13;1.80;;;;;;;23.06;31.63;96838.38;5094192;28;20048;-59
2022/10/30 11:16:53;;;;;;;3.22;1.85;;;;;;;23.17;31.82;96835.63;5094889;28;20071;-61
2022/10/30 11:19:21;;;;;;;2.33;1.77;;;;;;;23.30;31.50;96829.25;5094836;28;20478;-61
2022/10/30 11:21:53;;;;;;;2.80;1.85;;;;;;;23.39;30.82;96827.63;5094624;28;20056;-61
2022/10/30 11:24:29;;;;;;;2.88;1.70;;;;;;;23.47;30.32;96819.81;5094733;28;20134;-61
2022/10/30 11:26:57;;;;;;;2.35;1.52;;;;;;;23.50;30.33;96819.53;5094672;28;20386;-60
2022/10/30 11:29:28;;;;;;;6.90;1.70;;;;;;;23.48;30.28;96819.66;5094814;28;20086;-59
2022/10/30 11:32:02;;;;;;;3.20;1.63;;;;;;;23.43;30.87;96818.38;5094584;28;20412;-59
2022/10/30 11:34:33;;;;;;;4.43;1.55;;;;;;;23.42;29.98;96817.53;5094576;28;20048;-60
2022/10/30 11:37:02;;;;;;;2.05;1.55;;;;;;;23.45;31.15;96811.09;5094729;28;20101;-58
2022/10/30 11:39:31;;;;;;;3.30;1.50;;;;;;;23.44;30.28;96807.56;5094488;28;20410;-58
2022/10/30 11:42:03;;;;;;;2.92;1.60;;;;;;;23.45;30.71;96814.59;5094358;28;20490;-60
2022/10/30 11:44:35;;;;;;;2.25;1.63;;;;;;;23.54;30.37;96809.47;5094367;28;20044;-60
2022/10/30 11:47:03;;;;;;;1.55;1.27;;;;;;;23.59;30.26;96808.06;5094437;28;20052;-60
2022/10/30 11:49:43;;;;;;;4.05;1.70;;;;;;;23.62;30.56;96804.28;5094246;28;20131;-60
2022/10/30 11:52:14;;;;;;;1.98;1.60;;;;;;;23.69;30.56;96808.09;5094246;28;20138;-59